Terminal Aerodrome Forecast
Issued by NWS

Home | Current Version | Previous Version | Graphics & Text | Print | Product List | Glossary On
Versions: 1 2 3 4 5 6 7 8 9 10 11 12 13 14 15 16 17 18 19
000
FTUS43 KGRB 301100
TAFMTW
TAF
KMTW 301128Z 3012/3112 17006KT P6SM VCSH SCT012 OVC025
      TEMPO 3012/3016 5SM -SHRA BKN012
     FM301600 24006KT P6SM VCSH SCT012 OVC022
     FM302100 30007KT P6SM VCSH SCT010 BKN018
     FM310000 32005KT P6SM BKN020 BKN050
     FM310300 34005KT P6SM SCT020 BKN050
     FM310600 VRB03KT 4SM BR SCT020
      TEMPO 3108/3112 1SM BR SCT005=

USA.gov is the U.S. government's official web portal to all federal, state and local government web resources and services.